sensor_id;sensor_type;location;lat;lon;timestamp;P1;durP1;ratioP1;P2;durP2;ratioP2
6997;SDS011;3539;47.982;12.238;2022-08-16T00:02:22;4.40;;;3.80;;
6997;SDS011;3539;47.982;12.238;2022-08-16T00:04:49;5.07;;;4.47;;
6997;SDS011;3539;47.982;12.238;2022-08-16T00:07:15;5.07;;;4.20;;
6997;SDS011;3539;47.982;12.238;2022-08-16T00:09:42;4.17;;;3.87;;
6997;SDS011;3539;47.982;12.238;2022-08-16T00:12:10;4.30;;;3.67;;
6997;SDS011;3539;47.982;12.238;2022-08-16T00:14:42;4.53;;;4.13;;
6997;SDS011;3539;47.982;12.238;2022-08-16T00:17:09;4.50;;;4.10;;
6997;SDS011;3539;47.982;12.238;2022-08-16T00:19:36;4.97;;;4.47;;
6997;SDS011;3539;47.982;12.238;2022-08-16T00:22:02;4.47;;;4.07;;
6997;SDS011;3539;47.982;12.238;2022-08-16T00:24:29;4.13;;;3.73;;
6997;SDS011;3539;47.982;12.238;2022-08-16T00:26:57;4.53;;;3.97;;
6997;SDS011;3539;47.982;12.238;2022-08-16T00:29:25;4.20;;;3.80;;
6997;SDS011;3539;47.982;12.238;2022-08-16T00:31:54;3.93;;;3.60;;
6997;SDS011;3539;47.982;12.238;2022-08-16T00:34:21;4.50;;;4.07;;
6997;SDS011;3539;47.982;12.238;2022-08-16T00:36:48;4.07;;;3.67;;
6997;SDS011;3539;47.982;12.238;2022-08-16T00:39:16;4.30;;;3.90;;
6997;SDS011;3539;47.982;12.238;2022-08-16T00:41:44;4.97;;;4.07;;
6997;SDS011;3539;47.982;12.238;2022-08-16T00:44:11;4.20;;;3.80;;
6997;SDS011;3539;47.982;12.238;2022-08-16T00:46:44;3.90;;;3.50;;
6997;SDS011;3539;47.982;12.238;2022-08-16T00:49:13;4.27;;;3.83;;
6997;SDS011;3539;47.982;12.238;2022-08-16T00:51:41;3.80;;;3.50;;
6997;SDS011;3539;47.982;12.238;2022-08-16T00:54:08;4.17;;;3.40;;
6997;SDS011;3539;47.982;12.238;2022-08-16T00:56:36;4.07;;;3.63;;
6997;SDS011;3539;47.982;12.238;2022-08-16T00:59:05;4.47;;;4.07;;
6997;SDS011;3539;47.982;12.238;2022-08-16T01:01:33;4.37;;;3.97;;
6997;SDS011;3539;47.982;12.238;2022-08-16T01:04:01;4.40;;;4.00;;
6997;SDS011;3539;47.982;12.238;2022-08-16T01:06:29;4.30;;;3.90;;
6997;SDS011;3539;47.982;12.238;2022-08-16T01:08:56;5.37;;;4.00;;
6997;SDS011;3539;47.982;12.238;2022-08-16T01:11:23;4.83;;;4.13;;
6997;SDS011;3539;47.982;12.238;2022-08-16T01:13:52;4.33;;;3.93;;
6997;SDS011;3539;47.982;12.238;2022-08-16T01:16:21;4.03;;;3.60;;
6997;SDS011;3539;47.982;12.238;2022-08-16T01:18:50;4.20;;;3.80;;
6997;SDS011;3539;47.982;12.238;2022-08-16T01:21:22;3.80;;;3.50;;
6997;SDS011;3539;47.982;12.238;2022-08-16T01:24:02;4.17;;;3.60;;
6997;SDS011;3539;47.982;12.238;2022-08-16T01:26:33;3.87;;;3.57;;
6997;SDS011;3539;47.982;12.238;2022-08-16T01:29:02;4.03;;;3.63;;
6997;SDS011;3539;47.982;12.238;2022-08-16T01:31:30;4.30;;;3.90;;
6997;SDS011;3539;47.982;12.238;2022-08-16T01:33:57;5.40;;;3.87;;
6997;SDS011;3539;47.982;12.238;2022-08-16T01:36:24;4.27;;;3.67;;
6997;SDS011;3539;47.982;12.238;2022-08-16T01:38:51;3.83;;;3.43;;
6997;SDS011;3539;47.982;12.238;2022-08-16T01:41:20;4.00;;;3.70;;
6997;SDS011;3539;47.982;12.238;2022-08-16T01:43:48;4.20;;;3.80;;
6997;SDS011;3539;47.982;12.238;2022-08-16T01:46:18;4.37;;;3.97;;
6997;SDS011;3539;47.982;12.238;2022-08-16T01:48:47;3.80;;;3.50;;
6997;SDS011;3539;47.982;12.238;2022-08-16T01:51:15;5.60;;;4.03;;
6997;SDS011;3539;47.982;12.238;2022-08-16T01:53:43;4.37;;;3.97;;
6997;SDS011;3539;47.982;12.238;2022-08-16T01:56:10;4.03;;;3.70;;
6997;SDS011;3539;47.982;12.238;2022-08-16T01:58:38;4.67;;;4.13;;
6997;SDS011;3539;47.982;12.238;2022-08-16T02:01:05;4.30;;;3.90;;
6997;SDS011;3539;47.982;12.238;2022-08-16T02:03:32;5.37;;;3.57;;
6997;SDS011;3539;47.982;12.238;2022-08-16T02:05:59;4.33;;;3.93;;
6997;SDS011;3539;47.982;12.238;2022-08-16T02:08:26;3.93;;;3.63;;
6997;SDS011;3539;47.982;12.238;2022-08-16T02:10:52;5.43;;;3.90;;
6997;SDS011;3539;47.982;12.238;2022-08-16T02:13:19;4.27;;;3.87;;
6997;SDS011;3539;47.982;12.238;2022-08-16T02:15:47;4.87;;;4.40;;
6997;SDS011;3539;47.982;12.238;2022-08-16T02:18:14;4.50;;;4.10;;
6997;SDS011;3539;47.982;12.238;2022-08-16T02:20:46;4.23;;;3.90;;
6997;SDS011;3539;47.982;12.238;2022-08-16T02:23:15;6.13;;;4.23;;
6997;SDS011;3539;47.982;12.238;2022-08-16T02:25:43;4.17;;;3.80;;
6997;SDS011;3539;47.982;12.238;2022-08-16T02:28:11;5.07;;;4.43;;
6997;SDS011;3539;47.982;12.238;2022-08-16T02:30:38;5.00;;;4.60;;
6997;SDS011;3539;47.982;12.238;2022-08-16T02:33:07;5.30;;;4.80;;
6997;SDS011;3539;47.982;12.238;2022-08-16T02:35:34;5.03;;;4.53;;
6997;SDS011;3539;47.982;12.238;2022-08-16T02:38:01;5.40;;;4.90;;
6997;SDS011;3539;47.982;12.238;2022-08-16T02:40:28;4.90;;;4.43;;
6997;SDS011;3539;47.982;12.238;2022-08-16T02:42:55;5.47;;;4.43;;
6997;SDS011;3539;47.982;12.238;2022-08-16T02:45:23;5.37;;;4.20;;
6997;SDS011;3539;47.982;12.238;2022-08-16T02:47:51;4.77;;;4.37;;
6997;SDS011;3539;47.982;12.238;2022-08-16T02:50:19;5.23;;;4.80;;
6997;SDS011;3539;47.982;12.238;2022-08-16T02:52:46;5.10;;;4.70;;
6997;SDS011;3539;47.982;12.238;2022-08-16T02:55:13;6.10;;;4.30;;
6997;SDS011;3539;47.982;12.238;2022-08-16T02:57:40;5.00;;;4.50;;
6997;SDS011;3539;47.982;12.238;2022-08-16T03:00:07;4.13;;;3.80;;
6997;SDS011;3539;47.982;12.238;2022-08-16T03:02:40;5.83;;;3.97;;
6997;SDS011;3539;47.982;12.238;2022-08-16T03:05:09;4.10;;;3.80;;
6997;SDS011;3539;47.982;12.238;2022-08-16T03:07:38;3.90;;;3.57;;
6997;SDS011;3539;47.982;12.238;2022-08-16T03:10:05;4.03;;;3.63;;
6997;SDS011;3539;47.982;12.238;2022-08-16T03:12:33;3.90;;;3.60;;
6997;SDS011;3539;47.982;12.238;2022-08-16T03:15:00;4.77;;;3.80;;
6997;SDS011;3539;47.982;12.238;2022-08-16T03:17:27;3.97;;;3.57;;
6997;SDS011;3539;47.982;12.238;2022-08-16T03:19:54;3.53;;;3.23;;
6997;SDS011;3539;47.982;12.238;2022-08-16T03:22:20;4.40;;;4.00;;
6997;SDS011;3539;47.982;12.238;2022-08-16T03:24:49;5.60;;;4.30;;
6997;SDS011;3539;47.982;12.238;2022-08-16T03:27:16;4.07;;;3.73;;
6997;SDS011;3539;47.982;12.238;2022-08-16T03:29:43;4.37;;;3.90;;
6997;SDS011;3539;47.982;12.238;2022-08-16T03:32:09;4.10;;;3.80;;
6997;SDS011;3539;47.982;12.238;2022-08-16T03:34:36;5.07;;;3.97;;
6997;SDS011;3539;47.982;12.238;2022-08-16T03:37:04;4.57;;;3.80;;
6997;SDS011;3539;47.982;12.238;2022-08-16T03:39:31;4.70;;;4.10;;
6997;SDS011;3539;47.982;12.238;2022-08-16T03:41:59;4.60;;;4.17;;
6997;SDS011;3539;47.982;12.238;2022-08-16T03:44:26;4.43;;;4.03;;
6997;SDS011;3539;47.982;12.238;2022-08-16T03:46:52;4.53;;;4.13;;
6997;SDS011;3539;47.982;12.238;2022-08-16T03:49:19;4.70;;;4.20;;
6997;SDS011;3539;47.982;12.238;2022-08-16T03:51:47;4.43;;;4.03;;
6997;SDS011;3539;47.982;12.238;2022-08-16T03:54:14;4.83;;;4.33;;
6997;SDS011;3539;47.982;12.238;2022-08-16T03:56:41;5.10;;;4.60;;
6997;SDS011;3539;47.982;12.238;2022-08-16T03:59:09;4.90;;;4.40;;
6997;SDS011;3539;47.982;12.238;2022-08-16T04:01:36;5.30;;;4.80;;
6997;SDS011;3539;47.982;12.238;2022-08-16T04:04:02;4.97;;;4.47;;
6997;SDS011;3539;47.982;12.238;2022-08-16T04:06:29;4.47;;;4.10;;
6997;SDS011;3539;47.982;12.238;2022-08-16T04:08:56;4.60;;;4.20;;
6997;SDS011;3539;47.982;12.238;2022-08-16T04:11:23;4.57;;;4.17;;
6997;SDS011;3539;47.982;12.238;2022-08-16T04:13:50;4.87;;;4.37;;
6997;SDS011;3539;47.982;12.238;2022-08-16T04:16:18;4.43;;;4.03;;
6997;SDS011;3539;47.982;12.238;2022-08-16T04:18:51;4.97;;;4.57;;
6997;SDS011;3539;47.982;12.238;2022-08-16T04:21:18;5.60;;;4.37;;
6997;SDS011;3539;47.982;12.238;2022-08-16T04:23:45;4.50;;;4.10;;
6997;SDS011;3539;47.982;12.238;2022-08-16T04:26:12;5.80;;;4.60;;
6997;SDS011;3539;47.982;12.238;2022-08-16T04:28:39;5.30;;;4.20;;
6997;SDS011;3539;47.982;12.238;2022-08-16T04:31:06;4.97;;;4.37;;
6997;SDS011;3539;47.982;12.238;2022-08-16T04:33:34;5.50;;;4.20;;
6997;SDS011;3539;47.982;12.238;2022-08-16T04:36:01;4.37;;;4.07;;
6997;SDS011;3539;47.982;12.238;2022-08-16T04:38:28;4.70;;;4.30;;
6997;SDS011;3539;47.982;12.238;2022-08-16T04:40:55;4.53;;;4.13;;
6997;SDS011;3539;47.982;12.238;2022-08-16T04:43:22;4.60;;;4.20;;
6997;SDS011;3539;47.982;12.238;2022-08-16T04:45:49;4.50;;;4.10;;
6997;SDS011;3539;47.982;12.238;2022-08-16T04:48:16;5.37;;;4.57;;
6997;SDS011;3539;47.982;12.238;2022-08-16T04:50:44;4.20;;;3.90;;
6997;SDS011;3539;47.982;12.238;2022-08-16T04:53:11;4.07;;;3.60;;
6997;SDS011;3539;47.982;12.238;2022-08-16T04:55:44;4.40;;;4.10;;
6997;SDS011;3539;47.982;12.238;2022-08-16T04:58:11;4.30;;;3.90;;
6997;SDS011;3539;47.982;12.238;2022-08-16T05:00:46;4.50;;;4.10;;
6997;SDS011;3539;47.982;12.238;2022-08-16T05:03:15;3.87;;;3.57;;
6997;SDS011;3539;47.982;12.238;2022-08-16T05:05:42;5.03;;;4.33;;
6997;SDS011;3539;47.982;12.238;2022-08-16T05:08:11;4.70;;;4.30;;
6997;SDS011;3539;47.982;12.238;2022-08-16T05:10:38;25.13;;;19.80;;
6997;SDS011;3539;47.982;12.238;2022-08-16T05:13:05;29.30;;;20.03;;
6997;SDS011;3539;47.982;12.238;2022-08-16T05:15:33;14.17;;;12.07;;
6997;SDS011;3539;47.982;12.238;2022-08-16T05:18:01;8.13;;;6.67;;
6997;SDS011;3539;47.982;12.238;2022-08-16T05:20:28;7.13;;;6.43;;
6997;SDS011;3539;47.982;12.238;2022-08-16T05:22:55;8.70;;;7.80;;
6997;SDS011;3539;47.982;12.238;2022-08-16T05:25:23;5.63;;;4.90;;
6997;SDS011;3539;47.982;12.238;2022-08-16T05:27:50;5.00;;;4.60;;
6997;SDS011;3539;47.982;12.238;2022-08-16T05:30:18;4.60;;;4.20;;
6997;SDS011;3539;47.982;12.238;2022-08-16T05:32:45;5.23;;;4.37;;
6997;SDS011;3539;47.982;12.238;2022-08-16T05:35:18;6.87;;;4.10;;
6997;SDS011;3539;47.982;12.238;2022-08-16T05:37:45;4.93;;;4.10;;
6997;SDS011;3539;47.982;12.238;2022-08-16T05:40:12;5.90;;;4.30;;
6997;SDS011;3539;47.982;12.238;2022-08-16T05:42:41;8.30;;;4.70;;
6997;SDS011;3539;47.982;12.238;2022-08-16T05:45:08;4.73;;;4.33;;
6997;SDS011;3539;47.982;12.238;2022-08-16T05:47:35;6.83;;;4.60;;
6997;SDS011;3539;47.982;12.238;2022-08-16T05:50:02;4.57;;;4.17;;
6997;SDS011;3539;47.982;12.238;2022-08-16T05:52:30;4.93;;;4.07;;
6997;SDS011;3539;47.982;12.238;2022-08-16T05:54:57;7.13;;;4.13;;
6997;SDS011;3539;47.982;12.238;2022-08-16T05:57:24;4.47;;;3.93;;
6997;SDS011;3539;47.982;12.238;2022-08-16T05:59:53;4.73;;;4.27;;
6997;SDS011;3539;47.982;12.238;2022-08-16T06:02:19;4.83;;;4.43;;
6997;SDS011;3539;47.982;12.238;2022-08-16T06:04:51;5.73;;;4.23;;
6997;SDS011;3539;47.982;12.238;2022-08-16T06:07:18;6.07;;;4.40;;
6997;SDS011;3539;47.982;12.238;2022-08-16T06:09:46;4.87;;;4.40;;
6997;SDS011;3539;47.982;12.238;2022-08-16T06:12:13;5.37;;;4.27;;
6997;SDS011;3539;47.982;12.238;2022-08-16T06:14:40;5.70;;;5.20;;
6997;SDS011;3539;47.982;12.238;2022-08-16T06:17:09;5.37;;;4.73;;
6997;SDS011;3539;47.982;12.238;2022-08-16T06:19:35;5.13;;;4.73;;
6997;SDS011;3539;47.982;12.238;2022-08-16T06:22:02;5.47;;;4.67;;
6997;SDS011;3539;47.982;12.238;2022-08-16T06:24:29;5.83;;;4.43;;
6997;SDS011;3539;47.982;12.238;2022-08-16T06:26:56;4.97;;;4.57;;
6997;SDS011;3539;47.982;12.238;2022-08-16T06:29:23;5.03;;;4.47;;
6997;SDS011;3539;47.982;12.238;2022-08-16T06:31:49;4.90;;;4.50;;
6997;SDS011;3539;47.982;12.238;2022-08-16T06:34:17;4.90;;;4.43;;
6997;SDS011;3539;47.982;12.238;2022-08-16T06:36:44;4.97;;;4.47;;
6997;SDS011;3539;47.982;12.238;2022-08-16T06:39:11;5.10;;;4.60;;
6997;SDS011;3539;47.982;12.238;2022-08-16T06:41:44;5.00;;;4.47;;
6997;SDS011;3539;47.982;12.238;2022-08-16T06:44:11;5.33;;;4.33;;
6997;SDS011;3539;47.982;12.238;2022-08-16T06:46:37;5.07;;;4.57;;
6997;SDS011;3539;47.982;12.238;2022-08-16T06:49:06;6.33;;;4.83;;
6997;SDS011;3539;47.982;12.238;2022-08-16T06:51:35;8.40;;;4.80;;
6997;SDS011;3539;47.982;12.238;2022-08-16T06:54:04;5.37;;;4.87;;
6997;SDS011;3539;47.982;12.238;2022-08-16T06:56:31;6.13;;;5.00;;
6997;SDS011;3539;47.982;12.238;2022-08-16T06:58:58;5.67;;;4.60;;
6997;SDS011;3539;47.982;12.238;2022-08-16T07:01:25;5.00;;;4.50;;
6997;SDS011;3539;47.982;12.238;2022-08-16T07:03:52;5.30;;;4.57;;
6997;SDS011;3539;47.982;12.238;2022-08-16T07:06:19;4.50;;;4.10;;
6997;SDS011;3539;47.982;12.238;2022-08-16T07:08:48;4.30;;;3.90;;
6997;SDS011;3539;47.982;12.238;2022-08-16T07:11:19;5.50;;;4.60;;
6997;SDS011;3539;47.982;12.238;2022-08-16T07:13:47;4.10;;;3.80;;
6997;SDS011;3539;47.982;12.238;2022-08-16T07:16:15;4.60;;;4.20;;
6997;SDS011;3539;47.982;12.238;2022-08-16T07:18:41;5.23;;;4.13;;
6997;SDS011;3539;47.982;12.238;2022-08-16T07:21:09;4.47;;;3.90;;
6997;SDS011;3539;47.982;12.238;2022-08-16T07:23:36;4.87;;;4.33;;
6997;SDS011;3539;47.982;12.238;2022-08-16T07:26:05;5.47;;;4.00;;
6997;SDS011;3539;47.982;12.238;2022-08-16T07:28:33;4.63;;;3.83;;
6997;SDS011;3539;47.982;12.238;2022-08-16T07:31:00;4.30;;;3.67;;
6997;SDS011;3539;47.982;12.238;2022-08-16T07:33:27;4.30;;;3.90;;
6997;SDS011;3539;47.982;12.238;2022-08-16T07:35:54;4.03;;;3.57;;
6997;SDS011;3539;47.982;12.238;2022-08-16T07:38:21;4.00;;;3.67;;
6997;SDS011;3539;47.982;12.238;2022-08-16T07:40:50;4.17;;;3.43;;
6997;SDS011;3539;47.982;12.238;2022-08-16T07:43:18;3.90;;;3.60;;
6997;SDS011;3539;47.982;12.238;2022-08-16T07:45:45;4.20;;;3.13;;
6997;SDS011;3539;47.982;12.238;2022-08-16T07:48:11;3.13;;;2.93;;
6997;SDS011;3539;47.982;12.238;2022-08-16T07:50:39;3.70;;;3.40;;
6997;SDS011;3539;47.982;12.238;2022-08-16T07:53:08;4.83;;;3.70;;
6997;SDS011;3539;47.982;12.238;2022-08-16T07:55:35;4.23;;;3.50;;
6997;SDS011;3539;47.982;12.238;2022-08-16T07:58:02;3.47;;;3.20;;
6997;SDS011;3539;47.982;12.238;2022-08-16T08:00:31;4.50;;;3.43;;
6997;SDS011;3539;47.982;12.238;2022-08-16T08:02:58;3.60;;;3.30;;
6997;SDS011;3539;47.982;12.238;2022-08-16T08:05:25;3.87;;;3.27;;
6997;SDS011;3539;47.982;12.238;2022-08-16T08:07:53;4.50;;;3.50;;
6997;SDS011;3539;47.982;12.238;2022-08-16T08:10:20;3.65;;;3.33;;
6997;SDS011;3539;47.982;12.238;2022-08-16T08:12:48;3.30;;;3.00;;
6997;SDS011;3539;47.982;12.238;2022-08-16T08:15:16;4.27;;;3.30;;
6997;SDS011;3539;47.982;12.238;2022-08-16T08:17:44;4.20;;;2.87;;
6997;SDS011;3539;47.982;12.238;2022-08-16T08:20:13;3.20;;;2.70;;
6997;SDS011;3539;47.982;12.238;2022-08-16T08:22:42;2.97;;;2.77;;
6997;SDS011;3539;47.982;12.238;2022-08-16T08:25:11;3.43;;;2.77;;
6997;SDS011;3539;47.982;12.238;2022-08-16T08:27:38;3.03;;;2.80;;
6997;SDS011;3539;47.982;12.238;2022-08-16T08:30:07;4.30;;;2.70;;
6997;SDS011;3539;47.982;12.238;2022-08-16T08:32:35;5.70;;;5.23;;
6997;SDS011;3539;47.982;12.238;2022-08-16T08:35:03;21.43;;;20.23;;
6997;SDS011;3539;47.982;12.238;2022-08-16T08:37:31;20.70;;;19.60;;
6997;SDS011;3539;47.982;12.238;2022-08-16T08:39:59;20.17;;;19.17;;
6997;SDS011;3539;47.982;12.238;2022-08-16T08:42:26;22.17;;;20.97;;
6997;SDS011;3539;47.982;12.238;2022-08-16T08:44:53;30.70;;;29.10;;
6997;SDS011;3539;47.982;12.238;2022-08-16T08:47:20;33.23;;;31.73;;
6997;SDS011;3539;47.982;12.238;2022-08-16T08:49:47;33.53;;;32.03;;
6997;SDS011;3539;47.982;12.238;2022-08-16T08:52:15;32.83;;;31.17;;
6997;SDS011;3539;47.982;12.238;2022-08-16T08:54:42;38.23;;;36.47;;
6997;SDS011;3539;47.982;12.238;2022-08-16T08:57:09;41.07;;;39.23;;
6997;SDS011;3539;47.982;12.238;2022-08-16T08:59:36;43.97;;;41.93;;
6997;SDS011;3539;47.982;12.238;2022-08-16T09:02:03;46.53;;;44.47;;
6997;SDS011;3539;47.982;12.238;2022-08-16T09:04:33;39.47;;;37.67;;
6997;SDS011;3539;47.982;12.238;2022-08-16T09:06:59;45.17;;;43.20;;
6997;SDS011;3539;47.982;12.238;2022-08-16T09:09:29;40.83;;;38.93;;
6997;SDS011;3539;47.982;12.238;2022-08-16T09:11:56;41.50;;;39.67;;
6997;SDS011;3539;47.982;12.238;2022-08-16T09:14:23;47.83;;;45.60;;
6997;SDS011;3539;47.982;12.238;2022-08-16T09:16:50;50.63;;;48.43;;
6997;SDS011;3539;47.982;12.238;2022-08-16T09:19:17;51.17;;;48.90;;
6997;SDS011;3539;47.982;12.238;2022-08-16T09:21:43;41.17;;;39.33;;
6997;SDS011;3539;47.982;12.238;2022-08-16T09:24:13;26.40;;;25.23;;
6997;SDS011;3539;47.982;12.238;2022-08-16T09:26:41;20.23;;;19.13;;
6997;SDS011;3539;47.982;12.238;2022-08-16T09:29:08;16.40;;;15.60;;
6997;SDS011;3539;47.982;12.238;2022-08-16T09:31:44;19.50;;;18.48;;
6997;SDS011;3539;47.982;12.238;2022-08-16T09:34:11;40.30;;;38.53;;
6997;SDS011;3539;47.982;12.238;2022-08-16T09:36:41;31.02;;;29.58;;
6997;SDS011;3539;47.982;12.238;2022-08-16T09:39:07;21.75;;;20.65;;
6997;SDS011;3539;47.982;12.238;2022-08-16T09:41:34;27.93;;;26.33;;
6997;SDS011;3539;47.982;12.238;2022-08-16T09:44:03;14.13;;;13.32;;
6997;SDS011;3539;47.982;12.238;2022-08-16T09:46:31;40.88;;;38.97;;
6997;SDS011;3539;47.982;12.238;2022-08-16T09:48:58;13.52;;;12.82;;
6997;SDS011;3539;47.982;12.238;2022-08-16T09:51:25;12.80;;;12.10;;
6997;SDS011;3539;47.982;12.238;2022-08-16T09:53:52;14.57;;;13.88;;
6997;SDS011;3539;47.982;12.238;2022-08-16T09:56:22;15.45;;;14.75;;
6997;SDS011;3539;47.982;12.238;2022-08-16T09:58:51;12.40;;;11.80;;
6997;SDS011;3539;47.982;12.238;2022-08-16T10:01:20;14.45;;;13.75;;
6997;SDS011;3539;47.982;12.238;2022-08-16T10:03:46;12.60;;;12.00;;
6997;SDS011;3539;47.982;12.238;2022-08-16T10:06:13;14.23;;;13.52;;
6997;SDS011;3539;47.982;12.238;2022-08-16T10:08:40;14.07;;;13.35;;
6997;SDS011;3539;47.982;12.238;2022-08-16T10:11:09;14.65;;;13.95;;
6997;SDS011;3539;47.982;12.238;2022-08-16T10:13:54;11.80;;;11.15;;
6997;SDS011;3539;47.982;12.238;2022-08-16T10:16:23;12.55;;;11.95;;
6997;SDS011;3539;47.982;12.238;2022-08-16T10:18:50;14.23;;;13.43;;
6997;SDS011;3539;47.982;12.238;2022-08-16T10:21:20;13.93;;;13.23;;
6997;SDS011;3539;47.982;12.238;2022-08-16T10:23:47;13.95;;;13.35;;
6997;SDS011;3539;47.982;12.238;2022-08-16T10:26:16;12.65;;;12.02;;
6997;SDS011;3539;47.982;12.238;2022-08-16T10:28:44;11.75;;;11.23;;
6997;SDS011;3539;47.982;12.238;2022-08-16T10:31:11;13.93;;;13.23;;
6997;SDS011;3539;47.982;12.238;2022-08-16T10:33:40;16.77;;;15.98;;
6997;SDS011;3539;47.982;12.238;2022-08-16T10:36:08;16.85;;;16.05;;
6997;SDS011;3539;47.982;12.238;2022-08-16T10:38:41;14.95;;;14.25;;
6997;SDS011;3539;47.982;12.238;2022-08-16T10:41:09;16.77;;;15.98;;
6997;SDS011;3539;47.982;12.238;2022-08-16T10:43:40;15.52;;;14.82;;
6997;SDS011;3539;47.982;12.238;2022-08-16T10:46:08;13.27;;;12.57;;
6997;SDS011;3539;47.982;12.238;2022-08-16T10:48:37;13.07;;;12.48;;
6997;SDS011;3539;47.982;12.238;2022-08-16T10:51:06;14.15;;;13.35;;
6997;SDS011;3539;47.982;12.238;2022-08-16T10:53:33;11.90;;;11.30;;
6997;SDS011;3539;47.982;12.238;2022-08-16T10:56:02;15.02;;;14.23;;
6997;SDS011;3539;47.982;12.238;2022-08-16T10:58:31;14.98;;;14.27;;
6997;SDS011;3539;47.982;12.238;2022-08-16T11:00:58;10.35;;;9.85;;
6997;SDS011;3539;47.982;12.238;2022-08-16T11:03:26;13.45;;;12.75;;
6997;SDS011;3539;47.982;12.238;2022-08-16T11:05:53;12.13;;;11.52;;
6997;SDS011;3539;47.982;12.238;2022-08-16T11:08:24;12.48;;;11.77;;
6997;SDS011;3539;47.982;12.238;2022-08-16T11:10:59;12.85;;;12.15;;
6997;SDS011;3539;47.982;12.238;2022-08-16T11:13:26;11.55;;;10.85;;
6997;SDS011;3539;47.982;12.238;2022-08-16T11:15:54;12.93;;;12.23;;
6997;SDS011;3539;47.982;12.238;2022-08-16T11:18:21;12.70;;;12.10;;
6997;SDS011;3539;47.982;12.238;2022-08-16T11:20:48;13.23;;;12.48;;
6997;SDS011;3539;47.982;12.238;2022-08-16T11:23:15;11.77;;;11.18;;
6997;SDS011;3539;47.982;12.238;2022-08-16T11:25:43;13.95;;;13.35;;
6997;SDS011;3539;47.982;12.238;2022-08-16T11:28:10;12.77;;;12.18;;
6997;SDS011;3539;47.982;12.238;2022-08-16T11:30:37;11.25;;;10.68;;
6997;SDS011;3539;47.982;12.238;2022-08-16T11:33:06;12.43;;;11.73;;
6997;SDS011;3539;47.982;12.238;2022-08-16T11:35:33;13.73;;;13.05;;
6997;SDS011;3539;47.982;12.238;2022-08-16T11:38:00;13.13;;;12.40;;
6997;SDS011;3539;47.982;12.238;2022-08-16T11:40:34;12.27;;;11.70;;
6997;SDS011;3539;47.982;12.238;2022-08-16T11:43:04;12.25;;;11.55;;
6997;SDS011;3539;47.982;12.238;2022-08-16T11:45:31;13.40;;;12.80;;
6997;SDS011;3539;47.982;12.238;2022-08-16T11:47:59;10.07;;;9.40;;
6997;SDS011;3539;47.982;12.238;2022-08-16T11:50:26;12.00;;;11.48;;
6997;SDS011;3539;47.982;12.238;2022-08-16T11:52:52;11.20;;;10.70;;
6997;SDS011;3539;47.982;12.238;2022-08-16T11:55:19;13.07;;;12.48;;
6997;SDS011;3539;47.982;12.238;2022-08-16T11:57:46;11.85;;;11.25;;
6997;SDS011;3539;47.982;12.238;2022-08-16T12:00:15;10.48;;;9.98;;
6997;SDS011;3539;47.982;12.238;2022-08-16T12:02:42;10.02;;;9.52;;
6997;SDS011;3539;47.982;12.238;2022-08-16T12:05:10;11.90;;;11.10;;
6997;SDS011;3539;47.982;12.238;2022-08-16T12:07:39;9.35;;;8.75;;
6997;SDS011;3539;47.982;12.238;2022-08-16T12:10:06;8.23;;;7.72;;
6997;SDS011;3539;47.982;12.238;2022-08-16T12:12:34;13.45;;;12.75;;
6997;SDS011;3539;47.982;12.238;2022-08-16T12:15:01;11.15;;;10.55;;
6997;SDS011;3539;47.982;12.238;2022-08-16T12:17:30;10.88;;;10.38;;
6997;SDS011;3539;47.982;12.238;2022-08-16T12:19:57;11.75;;;11.23;;
6997;SDS011;3539;47.982;12.238;2022-08-16T12:22:24;11.90;;;11.30;;
6997;SDS011;3539;47.982;12.238;2022-08-16T12:24:51;11.70;;;11.00;;
6997;SDS011;3539;47.982;12.238;2022-08-16T12:27:19;9.65;;;8.77;;
6997;SDS011;3539;47.982;12.238;2022-08-16T12:29:46;9.40;;;8.93;;
6997;SDS011;3539;47.982;12.238;2022-08-16T12:32:15;10.85;;;10.35;;
6997;SDS011;3539;47.982;12.238;2022-08-16T12:34:45;9.30;;;8.80;;
6997;SDS011;3539;47.982;12.238;2022-08-16T12:37:13;10.40;;;9.90;;
6997;SDS011;3539;47.982;12.238;2022-08-16T12:42:31;7.32;;;6.97;;
6997;SDS011;3539;47.982;12.238;2022-08-16T12:44:58;11.73;;;11.02;;
6997;SDS011;3539;47.982;12.238;2022-08-16T12:47:25;10.13;;;9.52;;
6997;SDS011;3539;47.982;12.238;2022-08-16T12:50:11;10.38;;;9.77;;
6997;SDS011;3539;47.982;12.238;2022-08-16T12:52:38;8.85;;;8.38;;
6997;SDS011;3539;47.982;12.238;2022-08-16T12:55:05;9.18;;;8.68;;
6997;SDS011;3539;47.982;12.238;2022-08-16T12:57:35;10.63;;;10.13;;
6997;SDS011;3539;47.982;12.238;2022-08-16T13:00:04;8.85;;;8.35;;
6997;SDS011;3539;47.982;12.238;2022-08-16T13:02:32;9.77;;;9.27;;
6997;SDS011;3539;47.982;12.238;2022-08-16T13:05:07;8.55;;;8.10;;
6997;SDS011;3539;47.982;12.238;2022-08-16T13:07:47;10.90;;;10.40;;
6997;SDS011;3539;47.982;12.238;2022-08-16T13:10:17;8.82;;;8.40;;
6997;SDS011;3539;47.982;12.238;2022-08-16T13:12:53;10.70;;;10.20;;
6997;SDS011;3539;47.982;12.238;2022-08-16T13:15:25;10.75;;;10.07;;
6997;SDS011;3539;47.982;12.238;2022-08-16T13:17:58;9.88;;;9.38;;
6997;SDS011;3539;47.982;12.238;2022-08-16T13:20:25;10.50;;;10.00;;
6997;SDS011;3539;47.982;12.238;2022-08-16T13:22:59;11.82;;;11.23;;
6997;SDS011;3539;47.982;12.238;2022-08-16T13:25:30;9.75;;;9.25;;
6997;SDS011;3539;47.982;12.238;2022-08-16T13:27:59;10.07;;;9.57;;
6997;SDS011;3539;47.982;12.238;2022-08-16T13:30:27;10.95;;;10.45;;
6997;SDS011;3539;47.982;12.238;2022-08-16T13:32:55;9.65;;;9.15;;
6997;SDS011;3539;47.982;12.238;2022-08-16T13:35:23;9.98;;;9.38;;
6997;SDS011;3539;47.982;12.238;2022-08-16T13:37:50;10.40;;;9.73;;
6997;SDS011;3539;47.982;12.238;2022-08-16T13:40:18;10.73;;;10.02;;
6997;SDS011;3539;47.982;12.238;2022-08-16T13:42:46;10.07;;;9.57;;
6997;SDS011;3539;47.982;12.238;2022-08-16T13:45:14;10.00;;;9.48;;
6997;SDS011;3539;47.982;12.238;2022-08-16T13:47:41;11.38;;;10.85;;
6997;SDS011;3539;47.982;12.238;2022-08-16T13:50:08;10.95;;;10.45;;
6997;SDS011;3539;47.982;12.238;2022-08-16T13:52:36;11.55;;;10.85;;
6997;SDS011;3539;47.982;12.238;2022-08-16T13:55:03;11.77;;;11.18;;
6997;SDS011;3539;47.982;12.238;2022-08-16T13:57:31;10.65;;;9.93;;
6997;SDS011;3539;47.982;12.238;2022-08-16T13:59:58;13.82;;;12.93;;
6997;SDS011;3539;47.982;12.238;2022-08-16T14:02:25;11.35;;;10.65;;
6997;SDS011;3539;47.982;12.238;2022-08-16T14:04:52;9.32;;;8.82;;
6997;SDS011;3539;47.982;12.238;2022-08-16T14:07:19;9.52;;;9.02;;
6997;SDS011;3539;47.982;12.238;2022-08-16T14:09:46;9.57;;;9.07;;
6997;SDS011;3539;47.982;12.238;2022-08-16T14:12:16;9.77;;;9.13;;
6997;SDS011;3539;47.982;12.238;2022-08-16T14:14:47;13.00;;;12.40;;
6997;SDS011;3539;47.982;12.238;2022-08-16T14:17:15;9.90;;;9.43;;
6997;SDS011;3539;47.982;12.238;2022-08-16T14:19:42;10.27;;;9.57;;
6997;SDS011;3539;47.982;12.238;2022-08-16T14:22:12;10.38;;;9.88;;
6997;SDS011;3539;47.982;12.238;2022-08-16T14:24:41;11.45;;;10.85;;
6997;SDS011;3539;47.982;12.238;2022-08-16T14:27:10;11.80;;;11.10;;
6997;SDS011;3539;47.982;12.238;2022-08-16T14:29:37;9.70;;;9.23;;
6997;SDS011;3539;47.982;12.238;2022-08-16T14:32:05;13.13;;;12.43;;
6997;SDS011;3539;47.982;12.238;2022-08-16T14:34:34;13.05;;;12.43;;
6997;SDS011;3539;47.982;12.238;2022-08-16T14:37:01;12.07;;;11.48;;
6997;SDS011;3539;47.982;12.238;2022-08-16T14:39:29;10.65;;;10.15;;
6997;SDS011;3539;47.982;12.238;2022-08-16T14:42:01;9.80;;;9.30;;
6997;SDS011;3539;47.982;12.238;2022-08-16T14:44:29;13.25;;;12.65;;
6997;SDS011;3539;47.982;12.238;2022-08-16T14:46:56;10.13;;;9.60;;
6997;SDS011;3539;47.982;12.238;2022-08-16T14:49:24;10.93;;;10.30;;
6997;SDS011;3539;47.982;12.238;2022-08-16T14:51:51;12.18;;;11.57;;
6997;SDS011;3539;47.982;12.238;2022-08-16T14:54:17;11.00;;;10.45;;
6997;SDS011;3539;47.982;12.238;2022-08-16T14:56:44;11.07;;;10.57;;
6997;SDS011;3539;47.982;12.238;2022-08-16T14:59:14;11.77;;;11.07;;
6997;SDS011;3539;47.982;12.238;2022-08-16T15:01:40;10.23;;;9.73;;